Time;durP1;ratioP1;P1;durP2;ratioP2;P2;SDS_P1;SDS_P2;PMS_P1;PMS_P2;Temp;Humidity;BMP_temperature;BMP_pressure;BME280_temperature;BME280_humidity;BME280_pressure;Samples;Min_cycle;Max_cycle;Signal;HPM_P1;HPM_P2
2021/07/07 04:02:21;;;;;;;2.53;2.53;;;16.90;99.90;;;;;;5144152;23;20530;-70
2021/07/07 04:04:47;;;;;;;2.30;2.20;;;17.00;99.90;;;;;;4990907;28;20562;-70
2021/07/07 04:07:14;;;;;;;2.87;2.77;;;17.00;99.90;;;;;;4990020;28;20483;-69
2021/07/07 04:09:41;;;;;;;2.50;2.50;;;17.00;99.90;;;;;;4991290;28;20470;-70
2021/07/07 04:12:08;;;;;;;2.43;2.20;;;16.90;99.90;;;;;;4974062;28;20999;-70
2021/07/07 04:14:35;;;;;;;2.60;2.50;;;16.90;99.90;;;;;;4971508;28;20606;-71
2021/07/07 04:17:02;;;;;;;2.33;2.33;;;17.00;99.90;;;;;;4971179;28;20506;-69
2021/07/07 04:19:30;;;;;;;2.30;2.20;;;16.90;99.90;;;;;;4971326;28;20487;-71
2021/07/07 04:21:57;;;;;;;2.63;2.37;;;16.90;99.90;;;;;;4970606;28;21007;-70
2021/07/07 04:24:24;;;;;;;5.63;2.23;;;16.90;99.90;;;;;;4971436;28;20463;-70
2021/07/07 04:26:52;;;;;;;2.53;2.43;;;16.80;99.90;;;;;;4971210;28;20464;-70
2021/07/07 04:29:19;;;;;;;2.10;2.10;;;16.90;99.90;;;;;;4971389;28;20848;-70
2021/07/07 04:31:47;;;;;;;2.70;2.50;;;16.90;99.90;;;;;;4971017;28;21298;-72
2021/07/07 04:34:14;;;;;;;2.80;2.70;;;16.90;99.90;;;;;;4960274;28;20881;-72
2021/07/07 04:36:42;;;;;;;2.97;2.87;;;16.90;99.90;;;;;;4961316;28;20456;-72
2021/07/07 04:39:09;;;;;;;2.70;2.60;;;16.90;99.90;;;;;;4971528;28;20592;-72
2021/07/07 04:41:36;;;;;;;3.00;2.80;;;17.00;99.90;;;;;;4971341;28;20479;-72
2021/07/07 04:44:04;;;;;;;3.00;2.80;;;17.00;99.90;;;;;;4974671;28;20526;-72
2021/07/07 04:46:31;;;;;;;2.90;2.70;;;17.00;99.90;;;;;;4974666;28;20522;-72
2021/07/07 04:48:58;;;;;;;2.70;2.50;;;17.00;99.90;;;;;;4974801;28;20463;-73
2021/07/07 04:51:24;;;;;;;3.93;2.70;;;17.10;99.90;;;;;;4974254;28;20549;-72
2021/07/07 04:53:53;;;;;;;2.60;2.37;;;17.10;99.90;;;;;;4974681;28;20491;-72
2021/07/07 04:56:19;;;;;;;2.40;2.20;;;17.10;99.90;;;;;;4974272;28;20471;-72
2021/07/07 04:58:46;;;;;;;3.00;2.80;;;17.10;99.90;;;;;;4974888;28;20836;-72
2021/07/07 05:01:13;;;;;;;2.57;2.43;;;17.10;99.90;;;;;;4974435;28;20857;-72
2021/07/07 05:03:39;;;;;;;2.20;2.10;;;17.10;99.90;;;;;;4974408;28;20518;-72
2021/07/07 05:06:06;;;;;;;2.70;2.50;;;17.10;99.90;;;;;;4973652;28;20514;-72
2021/07/07 05:08:32;;;;;;;2.47;2.27;;;17.10;99.90;;;;;;4974778;28;20463;-70
2021/07/07 05:11:01;;;;;;;4.20;2.57;;;17.20;99.90;;;;;;4974291;28;20963;-71
2021/07/07 05:13:28;;;;;;;2.33;2.23;;;17.20;99.90;;;;;;4974213;28;20459;-70
2021/07/07 05:15:55;;;;;;;2.93;2.83;;;17.20;99.90;;;;;;4974319;28;20824;-72
2021/07/07 05:18:22;;;;;;;3.30;3.10;;;17.30;99.90;;;;;;4973703;28;20543;-70
2021/07/07 05:20:48;;;;;;;2.40;2.30;;;17.30;99.90;;;;;;4972854;28;20487;-70
2021/07/07 05:23:16;;;;;;;4.13;3.60;;;17.40;99.90;;;;;;4969769;28;20971;-70
2021/07/07 05:25:43;;;;;;;2.73;2.60;;;17.40;99.90;;;;;;4974056;28;20470;-71
2021/07/07 05:28:11;;;;;;;2.37;2.27;;;17.50;99.90;;;;;;4974101;28;20470;-71
2021/07/07 05:30:38;;;;;;;2.03;1.93;;;17.50;99.90;;;;;;4974357;28;20557;-70
2021/07/07 05:33:07;;;;;;;2.70;2.50;;;17.50;99.90;;;;;;4973759;28;20468;-71
2021/07/07 05:35:34;;;;;;;2.20;2.10;;;17.50;99.90;;;;;;4973397;28;20937;-71
2021/07/07 05:38:00;;;;;;;2.37;2.17;;;17.50;99.90;;;;;;4973547;28;20959;-70
2021/07/07 05:40:27;;;;;;;2.47;2.20;;;17.50;99.90;;;;;;4973290;28;20842;-71
2021/07/07 05:42:54;;;;;;;3.50;2.57;;;17.50;99.90;;;;;;4973750;28;20470;-71
2021/07/07 05:45:24;;;;;;;3.60;3.07;;;17.50;99.90;;;;;;4973670;28;20491;-71
2021/07/07 05:47:52;;;;;;;2.00;2.00;;;17.50;99.90;;;;;;4973751;28;20801;-71
2021/07/07 05:50:20;;;;;;;2.57;2.57;;;17.60;99.90;;;;;;4972806;28;20468;-71
2021/07/07 05:52:47;;;;;;;4.83;2.77;;;17.60;99.90;;;;;;4973454;28;20476;-71
2021/07/07 05:55:15;;;;;;;2.53;2.43;;;17.60;99.90;;;;;;4972390;28;20487;-71
2021/07/07 05:57:41;;;;;;;3.17;2.73;;;17.60;99.90;;;;;;4970138;28;20982;-71
2021/07/07 06:00:11;;;;;;;2.70;2.63;;;17.60;99.90;;;;;;4972985;28;20865;-71
2021/07/07 06:02:41;;;;;;;2.00;2.00;;;17.60;99.90;;;;;;4973251;28;20506;-71
2021/07/07 06:05:09;;;;;;;2.83;2.63;;;17.70;99.90;;;;;;4972195;28;20460;-71
2021/07/07 06:07:37;;;;;;;2.40;2.20;;;17.70;99.90;;;;;;4973510;28;20464;-71
2021/07/07 06:10:05;;;;;;;2.57;2.47;;;17.80;99.90;;;;;;4973299;28;20523;-71
2021/07/07 06:12:32;;;;;;;2.20;2.10;;;17.90;99.90;;;;;;4971540;28;20479;-71
2021/07/07 06:14:58;;;;;;;2.80;2.60;;;17.90;99.90;;;;;;4973264;28;20480;-72
2021/07/07 06:17:25;;;;;;;2.03;2.03;;;18.00;99.90;;;;;;4972993;28;20460;-72
2021/07/07 06:19:53;;;;;;;3.53;2.50;;;18.10;99.90;;;;;;4970060;28;20455;-72
2021/07/07 06:22:20;;;;;;;2.67;2.57;;;18.10;99.90;;;;;;4969814;28;20491;-71
2021/07/07 06:24:46;;;;;;;2.67;2.40;;;18.20;99.90;;;;;;4971494;28;20460;-72
2021/07/07 06:27:13;;;;;;;2.60;2.50;;;18.30;99.90;;;;;;4954208;29;20528;-72
2021/07/07 06:29:40;;;;;;;2.50;2.27;;;18.40;99.90;;;;;;4967084;28;21185;-72
2021/07/07 06:32:06;;;;;;;2.20;2.20;;;18.40;99.90;;;;;;4972966;28;20487;-72
2021/07/07 06:34:33;;;;;;;1.40;1.40;;;18.40;99.90;;;;;;4971945;28;20594;-72
2021/07/07 06:37:01;;;;;;;2.63;2.43;;;18.50;99.90;;;;;;4973692;28;20464;-72
2021/07/07 06:39:28;;;;;;;3.07;2.40;;;18.40;99.90;;;;;;4974459;28;20466;-72
2021/07/07 06:41:54;;;;;;;2.80;2.67;;;18.50;99.90;;;;;;4973580;28;20620;-73
2021/07/07 06:44:21;;;;;;;2.33;2.23;;;18.50;99.90;;;;;;4967522;28;20476;-72
2021/07/07 06:46:48;;;;;;;2.63;2.50;;;18.50;99.90;;;;;;4973227;28;20460;-72
2021/07/07 06:49:15;;;;;;;3.23;2.70;;;18.50;99.90;;;;;;4973532;28;20933;-72
2021/07/07 06:51:41;;;;;;;2.30;2.20;;;18.60;99.90;;;;;;4971624;28;20496;-73
2021/07/07 06:54:09;;;;;;;3.53;2.60;;;18.70;99.90;;;;;;4972561;28;20460;-73
2021/07/07 06:56:36;;;;;;;2.63;2.53;;;18.80;99.90;;;;;;4972901;28;20467;-73
2021/07/07 06:59:03;;;;;;;2.20;2.10;;;18.90;99.90;;;;;;4972358;28;20573;-72
2021/07/07 07:01:30;;;;;;;4.20;2.13;;;19.20;99.90;;;;;;4971743;28;20546;-72
2021/07/07 07:03:56;;;;;;;1.90;1.90;;;19.90;99.90;;;;;;4971088;28;20611;-73
2021/07/07 07:06:23;;;;;;;2.10;1.90;;;20.90;99.90;;;;;;4971799;28;20471;-71
2021/07/07 07:08:50;;;;;;;2.73;2.20;;;21.30;99.90;;;;;;4972094;28;20468;-71
2021/07/07 07:11:20;;;;;;;2.17;2.07;;;21.40;99.90;;;;;;4971996;28;20480;-72
2021/07/07 07:13:47;;;;;;;1.60;1.60;;;21.10;99.90;;;;;;4971829;28;20472;-73
2021/07/07 07:16:14;;;;;;;2.00;2.00;;;20.90;99.90;;;;;;4971093;28;20524;-72
2021/07/07 07:18:40;;;;;;;1.70;1.70;;;20.70;99.90;;;;;;4971827;28;20530;-73
2021/07/07 07:21:07;;;;;;;2.97;2.03;;;20.90;99.90;;;;;;4970914;28;20479;-73
2021/07/07 07:23:34;;;;;;;1.87;1.77;;;21.20;99.90;;;;;;4967711;28;21164;-71
2021/07/07 07:26:01;;;;;;;1.77;1.67;;;21.00;99.90;;;;;;4971688;28;20460;-72
2021/07/07 07:28:29;;;;;;;1.80;1.70;;;21.00;99.90;;;;;;4970544;28;20494;-72
2021/07/07 07:30:57;;;;;;;1.50;1.50;;;21.40;99.90;;;;;;4970572;28;20948;-73
2021/07/07 07:33:24;;;;;;;1.23;1.20;;;22.50;99.90;;;;;;4971738;28;20555;-73
2021/07/07 07:35:50;;;;;;;1.50;1.40;;;23.10;99.90;;;;;;4972234;28;20496;-73
2021/07/07 07:38:27;;;;;;;1.40;1.30;;;23.10;99.90;;;;;;4972971;28;20471;-72
2021/07/07 07:40:53;;;;;;;1.40;1.40;;;23.50;99.90;;;;;;4973206;28;20940;-73
2021/07/07 07:43:21;;;;;;;1.63;1.20;;;23.80;99.90;;;;;;4973271;28;20461;-73
2021/07/07 07:45:50;;;;;;;1.30;1.20;;;24.40;99.90;;;;;;4973936;28;20457;-74
2021/07/07 07:48:17;;;;;;;1.97;1.70;;;25.20;99.90;;;;;;4975104;28;20552;-74
2021/07/07 07:50:44;;;;;;;1.80;1.70;;;26.00;99.90;;;;;;4973069;28;20557;-73
2021/07/07 07:53:11;;;;;;;1.40;1.30;;;26.20;99.90;;;;;;4974625;28;20462;-74
2021/07/07 07:55:37;;;;;;;1.27;1.27;;;26.40;99.90;;;;;;4974983;28;20475;-71
2021/07/07 07:58:04;;;;;;;1.07;1.00;;;26.40;99.90;;;;;;4972188;28;20962;-69
2021/07/07 08:00:31;;;;;;;1.90;1.37;;;26.80;99.90;;;;;;4971818;28;20494;-70
2021/07/07 08:02:59;;;;;;;2.97;1.10;;;27.20;99.90;;;;;;4971914;28;20463;-70
2021/07/07 08:05:26;;;;;;;0.87;0.87;;;26.90;99.90;;;;;;4970958;28;20466;-70
2021/07/07 08:07:52;;;;;;;1.17;1.17;;;26.40;99.90;;;;;;4971990;28;20848;-71
2021/07/07 08:10:20;;;;;;;0.90;0.90;;;26.50;99.90;;;;;;4971722;28;20486;-68
2021/07/07 08:12:47;;;;;;;2.13;1.23;;;26.20;99.90;;;;;;4971780;28;20475;-69
2021/07/07 08:15:14;;;;;;;1.37;1.00;;;25.80;99.90;;;;;;4971642;28;20887;-68
2021/07/07 08:17:41;;;;;;;1.43;0.80;;;25.40;99.90;;;;;;4973427;28;20972;-68
2021/07/07 08:20:11;;;;;;;1.10;1.10;;;25.30;99.90;;;;;;4975033;28;20464;-68
2021/07/07 08:22:38;;;;;;;2.77;1.00;;;25.20;99.90;;;;;;4975426;28;20645;-69
2021/07/07 08:25:06;;;;;;;1.20;1.10;;;25.40;99.90;;;;;;4975215;28;20469;-68
2021/07/07 08:27:32;;;;;;;1.30;1.20;;;25.60;99.90;;;;;;4975676;28;20898;-68
2021/07/07 08:29:59;;;;;;;1.10;1.10;;;25.40;99.90;;;;;;4975499;28;20474;-69
2021/07/07 08:32:26;;;;;;;0.90;0.90;;;25.40;99.90;;;;;;4975031;28;20836;-68
2021/07/07 08:34:53;;;;;;;1.43;1.00;;;25.40;99.90;;;;;;4974515;28;20557;-70
2021/07/07 08:37:21;;;;;;;1.00;0.97;;;25.60;99.90;;;;;;4974936;28;20486;-68
2021/07/07 08:39:47;;;;;;;1.53;1.30;;;26.00;99.90;;;;;;4975264;28;20845;-70
2021/07/07 08:42:15;;;;;;;1.80;1.40;;;26.00;99.90;;;;;;4975237;28;20497;-71
2021/07/07 08:44:43;;;;;;;1.17;1.07;;;26.20;99.90;;;;;;4968941;28;20476;-68
2021/07/07 08:47:09;;;;;;;1.10;1.10;;;26.20;99.90;;;;;;4975240;28;20587;-68
2021/07/07 08:49:36;;;;;;;1.17;1.10;;;26.40;99.90;;;;;;4974753;28;20472;-67
2021/07/07 08:52:03;;;;;;;1.07;1.07;;;26.50;99.90;;;;;;4974213;28;20537;-72
2021/07/07 08:54:32;;;;;;;1.20;1.20;;;26.70;99.90;;;;;;4974720;28;20475;-68
2021/07/07 08:57:04;;;;;;;1.40;1.30;;;26.70;99.90;;;;;;4975002;28;20494;-68
2021/07/07 08:59:31;;;;;;;1.93;1.20;;;26.60;99.90;;;;;;4974756;28;20461;-68
2021/07/07 09:02:05;;;;;;;1.53;1.43;;;26.40;99.90;;;;;;4974235;28;20551;-68
2021/07/07 09:04:33;;;;;;;2.07;1.23;;;26.40;99.90;;;;;;4972946;28;20474;-69
2021/07/07 09:07:01;;;;;;;1.30;1.20;;;26.50;99.90;;;;;;4973597;28;20473;-68
2021/07/07 09:09:40;;;;;;;1.60;1.50;;;26.40;99.90;;;;;;4973786;28;20492;-68
2021/07/07 09:12:15;;;;;;;1.43;1.17;;;26.10;99.90;;;;;;4973544;28;20490;-68
2021/07/07 09:14:43;;;;;;;1.47;1.43;;;26.10;99.90;;;;;;4973221;28;20476;-69
2021/07/07 09:17:15;;;;;;;1.50;1.50;;;26.10;99.90;;;;;;4966366;28;20502;-70
2021/07/07 09:19:42;;;;;;;1.90;1.80;;;26.20;99.90;;;;;;4971862;28;20470;-69
2021/07/07 09:22:11;;;;;;;1.70;1.60;;;26.10;99.90;;;;;;4971704;28;20480;-70
2021/07/07 09:24:41;;;;;;;1.83;1.77;;;26.30;99.90;;;;;;4973090;28;20458;-68
2021/07/07 09:27:09;;;;;;;1.73;1.63;;;26.20;99.90;;;;;;4973031;28;20464;-70
2021/07/07 09:29:39;;;;;;;1.53;1.50;;;25.90;99.90;;;;;;4967978;28;20871;-68
2021/07/07 09:32:13;;;;;;;5.30;1.77;;;25.60;99.90;;;;;;4973198;28;20871;-69
2021/07/07 09:34:41;;;;;;;1.30;1.20;;;25.80;99.90;;;;;;4967803;28;20462;-69
2021/07/07 09:37:08;;;;;;;1.50;1.40;;;25.70;99.90;;;;;;4972748;28;20500;-68
2021/07/07 09:39:34;;;;;;;1.20;1.20;;;25.80;99.90;;;;;;4972988;28;20472;-69
2021/07/07 09:42:03;;;;;;;2.87;2.60;;;25.70;99.90;;;;;;4972922;28;20485;-69
2021/07/07 09:44:33;;;;;;;1.77;1.67;;;25.10;99.90;;;;;;4971728;28;20538;-69
2021/07/07 09:47:00;;;;;;;1.70;1.60;;;25.10;99.90;;;;;;4972714;28;20484;-69
2021/07/07 09:49:27;;;;;;;1.47;1.47;;;25.20;99.90;;;;;;4972894;28;20893;-71
2021/07/07 09:51:53;;;;;;;1.40;1.40;;;25.30;99.90;;;;;;4973301;28;20479;-69
2021/07/07 09:54:22;;;;;;;1.53;1.47;;;25.30;99.90;;;;;;4972657;28;20796;-70
2021/07/07 09:56:49;;;;;;;1.50;1.40;;;25.20;99.90;;;;;;4972994;28;20480;-67
2021/07/07 09:59:17;;;;;;;2.43;1.93;;;25.10;99.90;;;;;;4973317;28;20547;-67
2021/07/07 10:01:46;;;;;;;2.73;2.00;;;24.90;99.90;;;;;;4938130;28;1020919;-68
2021/07/07 10:04:15;;;;;;;2.17;2.07;;;24.80;99.90;;;;;;4973555;28;20335;-68
2021/07/07 10:06:42;;;;;;;1.90;1.90;;;24.70;99.90;;;;;;4973453;28;20474;-68
2021/07/07 10:09:10;;;;;;;3.20;1.90;;;24.50;99.90;;;;;;4973944;28;20948;-68
2021/07/07 10:11:38;;;;;;;1.80;1.70;;;24.60;99.90;;;;;;4974009;28;20494;-69
2021/07/07 10:14:07;;;;;;;2.30;1.80;;;24.70;99.90;;;;;;4954526;28;20875;-68
2021/07/07 10:16:36;;;;;;;2.40;1.90;;;25.00;99.90;;;;;;4968522;28;20483;-68
2021/07/07 10:19:03;;;;;;;2.57;2.47;;;25.20;99.90;;;;;;4973677;28;20478;-68
2021/07/07 10:21:30;;;;;;;2.20;2.10;;;25.30;99.90;;;;;;4973253;28;20538;-68
2021/07/07 10:23:56;;;;;;;2.20;2.00;;;25.40;99.90;;;;;;4973374;28;20472;-69
2021/07/07 10:26:24;;;;;;;2.00;1.90;;;25.70;99.90;;;;;;4973135;28;20448;-69
2021/07/07 10:28:51;;;;;;;1.67;1.67;;;25.70;99.90;;;;;;4973485;28;20491;-70
2021/07/07 10:31:20;;;;;;;2.30;2.20;;;25.60;99.90;;;;;;4973303;28;20565;-68
2021/07/07 10:33:48;;;;;;;2.20;2.00;;;25.70;99.90;;;;;;4972958;28;20471;-68
2021/07/07 10:36:23;;;;;;;1.73;1.73;;;26.00;99.90;;;;;;4972726;28;20542;-68
2021/07/07 10:38:55;;;;;;;5.80;2.03;;;26.20;99.90;;;;;;4973185;28;20471;-68
2021/07/07 10:41:52;;;;;;;1.53;1.43;;;26.10;99.90;;;;;;4972995;28;20487;-68
2021/07/07 10:44:53;;;;;;;2.13;1.97;;;26.30;99.90;;;;;;4971641;28;20468;-69
2021/07/07 10:47:38;;;;;;;2.33;1.67;;;26.60;99.90;;;;;;4973468;28;20570;-68
2021/07/07 10:50:09;;;;;;;3.80;1.70;;;26.60;99.90;;;;;;4972075;28;20471;-69
2021/07/07 10:52:40;;;;;;;1.87;1.77;;;26.50;99.60;;;;;;4972766;28;20468;-68
2021/07/07 10:55:09;;;;;;;1.73;1.63;;;26.10;99.90;;;;;;4973350;28;20464;-68
2021/07/07 10:57:36;;;;;;;2.00;1.80;;;25.90;99.90;;;;;;4973139;28;20492;-70
2021/07/07 11:00:06;;;;;;;1.80;1.70;;;25.60;99.90;;;;;;4972640;28;20558;-70
2021/07/07 11:02:33;;;;;;;1.70;1.60;;;25.60;99.90;;;;;;4972593;28;20566;-70
2021/07/07 11:05:02;;;;;;;2.20;2.17;;;25.70;99.90;;;;;;4971591;28;20952;-70
2021/07/07 11:07:39;;;;;;;1.77;1.70;;;25.60;99.90;;;;;;4972300;28;20482;-71
2021/07/07 11:10:09;;;;;;;1.97;1.97;;;25.50;99.90;;;;;;4972490;28;20460;-70
2021/07/07 11:13:13;;;;;;;1.80;1.80;;;25.80;99.90;;;;;;4972447;28;20903;-70
2021/07/07 11:15:40;;;;;;;2.13;2.03;;;25.90;99.90;;;;;;4972835;28;20464;-70
2021/07/07 11:18:23;;;;;;;1.70;1.70;;;26.00;99.90;;;;;;4972507;28;20504;-70
2021/07/07 11:21:07;;;;;;;1.50;1.50;;;25.90;99.90;;;;;;4970851;28;20486;-70
2021/07/07 11:23:37;;;;;;;2.13;1.37;;;25.70;99.90;;;;;;4970812;28;20459;-70
2021/07/07 11:26:04;;;;;;;1.33;1.33;;;25.20;99.90;;;;;;4972703;28;20456;-71
2021/07/07 11:28:30;;;;;;;1.90;1.60;;;25.00;99.90;;;;;;4972862;28;20968;-70
2021/07/07 11:30:58;;;;;;;1.97;1.77;;;25.20;99.90;;;;;;4972365;28;20479;-70
2021/07/07 11:33:24;;;;;;;1.73;1.63;;;25.40;99.70;;;;;;4969273;28;20480;-70
2021/07/07 11:35:51;;;;;;;2.53;1.90;;;25.70;99.90;;;;;;4971229;28;20492;-71
2021/07/07 11:38:23;;;;;;;1.70;1.70;;;25.70;99.10;;;;;;4972977;28;20826;-70
2021/07/07 11:40:53;;;;;;;1.70;1.60;;;25.80;99.90;;;;;;4972364;28;21114;-71
2021/07/07 11:43:21;;;;;;;1.70;1.70;;;26.00;99.60;;;;;;4973502;28;20467;-71
2021/07/07 11:45:50;;;;;;;1.60;1.60;;;26.20;99.20;;;;;;4972162;28;20956;-70
2021/07/07 11:48:20;;;;;;;4.17;2.13;;;26.10;98.20;;;;;;4972351;28;20455;-70
2021/07/07 11:50:51;;;;;;;2.10;2.00;;;26.00;98.90;;;;;;4971570;28;20733;-70
2021/07/07 11:53:19;;;;;;;2.60;1.87;;;26.00;98.30;;;;;;4971334;28;20535;-70
2021/07/07 11:55:49;;;;;;;2.23;2.00;;;26.20;98.30;;;;;;4971822;28;20974;-71
2021/07/07 11:58:30;;;;;;;1.43;1.40;;;26.30;97.90;;;;;;4972216;28;20936;-70
2021/07/07 12:00:59;;;;;;;2.57;1.73;;;26.20;96.30;;;;;;4971749;28;20641;-70
2021/07/07 12:03:27;;;;;;;1.40;1.30;;;26.10;96.50;;;;;;4971910;28;20475;-70
2021/07/07 12:06:00;;;;;;;1.53;1.53;;;26.10;97.50;;;;;;4970996;28;20468;-70
2021/07/07 12:08:29;;;;;;;1.33;1.33;;;26.00;97.70;;;;;;4972251;28;20550;-70
2021/07/07 12:11:05;;;;;;;1.80;1.80;;;26.20;99.10;;;;;;4971489;28;20484;-70
2021/07/07 12:13:36;;;;;;;1.60;1.50;;;26.20;97.80;;;;;;4963846;28;20463;-70
2021/07/07 12:16:20;;;;;;;2.90;2.10;;;26.30;97.90;;;;;;4970931;28;20463;-70
2021/07/07 12:18:48;;;;;;;1.60;1.50;;;26.40;98.60;;;;;;4971591;28;20490;-70
2021/07/07 12:21:28;;;;;;;2.33;2.20;;;26.50;99.20;;;;;;4952316;28;20820;-70
2021/07/07 12:23:57;;;;;;;1.90;1.90;;;26.30;99.30;;;;;;4956582;28;20561;-70
2021/07/07 12:26:25;;;;;;;2.00;1.90;;;26.30;99.40;;;;;;4971982;28;20919;-70
2021/07/07 12:28:56;;;;;;;1.80;1.70;;;26.40;99.00;;;;;;4971978;28;20463;-70
2021/07/07 12:31:24;;;;;;;2.30;2.20;;;26.10;98.70;;;;;;4952517;28;20949;-70
2021/07/07 12:33:53;;;;;;;1.63;1.63;;;25.80;99.90;;;;;;4955070;28;20950;-69
2021/07/07 12:36:23;;;;;;;1.70;1.60;;;25.80;99.90;;;;;;4971150;28;20479;-70
2021/07/07 12:38:50;;;;;;;2.87;1.83;;;25.90;99.60;;;;;;4972038;28;20485;-70
2021/07/07 12:41:17;;;;;;;1.43;1.43;;;25.80;98.20;;;;;;4971575;28;20570;-70
2021/07/07 12:43:55;;;;;;;1.50;1.50;;;26.00;98.50;;;;;;4971931;28;20474;-70
2021/07/07 12:46:24;;;;;;;1.83;1.57;;;26.10;98.10;;;;;;4970725;28;20463;-70
2021/07/07 12:48:52;;;;;;;2.50;2.27;;;26.10;98.10;;;;;;4971510;28;20475;-70
2021/07/07 12:51:23;;;;;;;1.80;1.80;;;26.20;98.00;;;;;;4970909;28;20494;-70
2021/07/07 12:53:50;;;;;;;2.03;1.93;;;26.20;98.10;;;;;;4971676;28;20464;-69
2021/07/07 12:56:17;;;;;;;3.27;1.90;;;26.00;97.80;;;;;;4971670;28;20483;-70
2021/07/07 12:58:44;;;;;;;1.63;1.60;;;25.90;98.50;;;;;;4971851;28;20563;-70
2021/07/07 13:01:25;;;;;;;1.67;1.57;;;25.70;97.90;;;;;;4970943;28;20574;-70
2021/07/07 13:03:51;;;;;;;1.67;1.67;;;25.70;98.60;;;;;;4953184;28;21193;-70
2021/07/07 13:06:22;;;;;;;2.00;1.97;;;25.80;99.00;;;;;;4974847;28;20541;-70
2021/07/07 13:08:50;;;;;;;1.83;1.73;;;26.00;99.70;;;;;;4975811;28;20526;-70
2021/07/07 13:11:18;;;;;;;3.67;1.93;;;26.00;99.20;;;;;;4975180;28;21022;-70
2021/07/07 13:13:46;;;;;;;1.80;1.70;;;26.20;99.90;;;;;;4975151;28;20471;-69
2021/07/07 13:16:18;;;;;;;1.57;1.50;;;26.30;99.30;;;;;;4974767;28;20465;-67
2021/07/07 13:18:58;;;;;;;2.80;2.60;;;26.30;99.00;;;;;;4975156;28;20574;-68
2021/07/07 13:21:38;;;;;;;1.60;1.60;;;26.30;99.10;;;;;;4969980;28;20475;-67
2021/07/07 13:24:06;;;;;;;2.50;1.80;;;26.30;98.60;;;;;;4980557;28;20452;-68
2021/07/07 13:26:52;;;;;;;1.73;1.63;;;26.40;99.70;;;;;;4975400;28;20466;-68
2021/07/07 13:29:24;;;;;;;2.57;1.83;;;26.30;98.90;;;;;;4974286;28;20466;-68
2021/07/07 13:32:06;;;;;;;3.90;1.57;;;26.20;98.10;;;;;;4974415;28;20971;-67
2021/07/07 13:34:35;;;;;;;3.60;2.20;;;26.20;97.70;;;;;;4965300;28;20558;-68
2021/07/07 13:37:13;;;;;;;2.20;2.07;;;26.30;98.80;;;;;;4973796;28;20498;-68
2021/07/07 13:39:41;;;;;;;2.00;2.00;;;26.30;98.80;;;;;;4973475;28;20822;-67
2021/07/07 13:42:08;;;;;;;2.00;1.90;;;26.10;98.20;;;;;;4974107;28;20514;-68
2021/07/07 13:44:34;;;;;;;2.73;2.20;;;25.90;98.70;;;;;;4973685;28;20464;-68
2021/07/07 13:47:01;;;;;;;1.80;1.73;;;26.00;99.10;;;;;;4973705;28;20538;-69
2021/07/07 13:49:28;;;;;;;2.07;1.87;;;26.30;98.50;;;;;;4973215;28;21046;-68
2021/07/07 13:51:56;;;;;;;2.90;2.70;;;26.30;97.90;;;;;;4972900;28;20500;-69
2021/07/07 13:54:22;;;;;;;2.37;2.27;;;26.40;97.80;;;;;;4973758;28;20820;-68
2021/07/07 13:56:49;;;;;;;1.70;1.70;;;26.60;98.10;;;;;;4973225;28;20487;-68
2021/07/07 13:59:16;;;;;;;1.90;1.80;;;26.70;98.20;;;;;;4972920;28;20463;-68
2021/07/07 14:01:42;;;;;;;1.90;1.90;;;26.60;97.40;;;;;;4972885;28;20495;-68
2021/07/07 14:04:09;;;;;;;2.40;2.10;;;26.70;97.80;;;;;;4971412;28;20468;-69
2021/07/07 14:06:37;;;;;;;2.03;1.93;;;26.60;98.40;;;;;;4973124;28;20554;-69
2021/07/07 14:09:05;;;;;;;2.10;2.00;;;26.60;98.50;;;;;;4973953;28;20468;-69
2021/07/07 14:11:33;;;;;;;1.90;1.90;;;26.60;98.40;;;;;;4973490;28;20924;-69
2021/07/07 14:14:00;;;;;;;1.80;1.70;;;26.60;98.50;;;;;;4964848;28;20952;-69
2021/07/07 14:16:27;;;;;;;1.80;1.53;;;26.80;99.00;;;;;;4972648;28;20464;-69
2021/07/07 14:18:53;;;;;;;2.40;2.00;;;26.90;97.40;;;;;;4973217;28;20471;-69
2021/07/07 14:21:20;;;;;;;2.30;2.30;;;27.10;98.10;;;;;;4972654;28;20542;-69
2021/07/07 14:23:47;;;;;;;1.70;1.70;;;27.10;97.90;;;;;;4973289;28;20514;-69
2021/07/07 14:26:15;;;;;;;1.93;1.93;;;27.00;97.60;;;;;;4973299;28;20476;-69
2021/07/07 14:28:42;;;;;;;2.93;1.77;;;26.80;97.40;;;;;;4972968;28;20768;-69
2021/07/07 14:31:09;;;;;;;2.37;2.00;;;26.40;97.90;;;;;;4973946;28;20611;-69
2021/07/07 14:33:35;;;;;;;1.73;1.73;;;26.30;98.40;;;;;;4973347;28;20519;-68
2021/07/07 14:36:02;;;;;;;2.13;2.03;;;26.40;98.80;;;;;;4969426;28;21042;-69
2021/07/07 14:38:29;;;;;;;2.20;2.10;;;26.70;99.00;;;;;;4970315;28;20511;-69
2021/07/07 14:40:55;;;;;;;2.20;2.10;;;27.00;99.30;;;;;;4971719;28;20488;-69
2021/07/07 14:43:23;;;;;;;2.20;2.10;;;27.10;97.90;;;;;;4973608;28;20472;-69
2021/07/07 14:45:50;;;;;;;2.20;2.10;;;27.00;97.40;;;;;;4972220;28;20483;-68
2021/07/07 14:48:20;;;;;;;2.93;2.83;;;26.80;97.70;;;;;;4973405;28;20483;-69
2021/07/07 14:50:47;;;;;;;2.37;2.17;;;26.60;97.40;;;;;;4972049;28;20488;-68
2021/07/07 14:53:13;;;;;;;2.43;2.00;;;26.60;97.80;;;;;;4972970;28;21015;-68
2021/07/07 14:55:40;;;;;;;2.50;1.53;;;26.70;96.80;;;;;;4973142;28;20464;-68
2021/07/07 14:58:07;;;;;;;3.50;1.87;;;26.70;96.90;;;;;;4972526;28;20479;-68
2021/07/07 15:00:36;;;;;;;1.83;1.77;;;26.80;97.30;;;;;;4972179;28;20570;-68
2021/07/07 15:03:03;;;;;;;2.83;1.87;;;26.80;97.20;;;;;;4975653;28;20538;-68
2021/07/07 15:05:29;;;;;;;2.03;1.93;;;26.70;97.20;;;;;;4970794;28;20472;-69
2021/07/07 15:07:56;;;;;;;1.63;1.53;;;26.80;97.50;;;;;;4973269;28;20459;-69
2021/07/07 15:10:23;;;;;;;2.00;1.90;;;26.80;96.20;;;;;;4971884;28;20593;-69
2021/07/07 15:12:50;;;;;;;3.53;2.20;;;26.90;96.30;;;;;;4972385;28;20472;-72
2021/07/07 15:15:16;;;;;;;3.47;2.00;;;26.90;95.90;;;;;;4973055;28;20475;-72
2021/07/07 15:17:44;;;;;;;1.87;1.73;;;27.00;96.50;;;;;;4973188;28;20491;-72
2021/07/07 15:20:11;;;;;;;2.57;1.80;;;26.90;95.70;;;;;;4972287;28;20467;-72
2021/07/07 15:22:39;;;;;;;1.90;1.80;;;26.80;96.60;;;;;;4973393;28;20477;-71
2021/07/07 15:25:08;;;;;;;2.00;1.90;;;26.70;96.10;;;;;;4972869;28;20936;-72
2021/07/07 15:27:35;;;;;;;1.90;1.80;;;26.60;96.30;;;;;;4973357;28;20464;-72
2021/07/07 15:30:01;;;;;;;1.87;1.77;;;26.40;96.40;;;;;;4972145;28;20480;-72
2021/07/07 15:32:28;;;;;;;4.50;2.17;;;26.10;96.60;;;;;;4972750;28;20539;-71
2021/07/07 15:34:56;;;;;;;2.40;2.30;;;26.10;97.20;;;;;;4967590;28;20475;-71
2021/07/07 15:37:24;;;;;;;2.83;2.47;;;26.00;97.20;;;;;;4972698;28;20546;-72
2021/07/07 15:39:51;;;;;;;3.70;2.20;;;25.90;97.70;;;;;;4972056;28;20590;-72
2021/07/07 15:42:19;;;;;;;2.20;1.77;;;26.10;97.70;;;;;;4971831;28;20487;-72
2021/07/07 15:44:46;;;;;;;1.83;1.73;;;26.40;97.00;;;;;;4972019;28;20808;-72
2021/07/07 15:47:13;;;;;;;1.47;1.37;;;26.70;96.60;;;;;;4971689;28;20888;-72
2021/07/07 15:49:39;;;;;;;1.60;1.50;;;26.70;96.10;;;;;;4971906;28;20463;-72
2021/07/07 15:52:08;;;;;;;2.10;1.60;;;26.70;96.50;;;;;;4971088;28;20531;-72
2021/07/07 15:54:34;;;;;;;1.90;1.73;;;26.60;96.40;;;;;;4967548;28;20464;-70
2021/07/07 15:57:01;;;;;;;1.77;1.67;;;26.20;96.20;;;;;;4970109;28;20478;-70
2021/07/07 15:59:28;;;;;;;2.47;2.37;;;26.00;96.70;;;;;;4969776;28;20468;-72
2021/07/07 16:01:54;;;;;;;2.03;1.83;;;25.80;96.70;;;;;;4972118;28;20498;-71
2021/07/07 16:04:21;;;;;;;2.20;2.03;;;25.60;96.70;;;;;;4970761;28;20518;-72
2021/07/07 16:06:47;;;;;;;1.73;1.70;;;25.70;97.60;;;;;;4965223;28;20467;-69
2021/07/07 16:09:16;;;;;;;2.03;1.93;;;25.70;97.70;;;;;;4972059;28;20483;-71
2021/07/07 16:11:42;;;;;;;3.10;1.93;;;25.60;97.50;;;;;;4969140;28;20574;-71
2021/07/07 16:14:09;;;;;;;1.50;1.43;;;25.60;97.80;;;;;;4967799;28;20467;-72
2021/07/07 16:16:36;;;;;;;1.87;1.77;;;25.70;97.80;;;;;;4970664;28;20467;-72
2021/07/07 16:19:04;;;;;;;2.10;2.00;;;25.70;98.30;;;;;;4971157;28;20497;-72
2021/07/07 16:21:32;;;;;;;1.93;1.93;;;26.00;98.90;;;;;;4971228;28;20567;-72
2021/07/07 16:23:59;;;;;;;1.90;1.77;;;26.20;98.00;;;;;;4964324;28;20475;-72
2021/07/07 16:26:27;;;;;;;1.70;1.70;;;26.50;97.90;;;;;;4971522;28;20495;-72
2021/07/07 16:28:55;;;;;;;1.73;1.60;;;26.50;97.60;;;;;;4972490;28;20533;-72
2021/07/07 16:31:24;;;;;;;2.97;1.87;;;26.60;97.80;;;;;;4972173;28;20534;-72
2021/07/07 16:33:51;;;;;;;2.30;1.70;;;26.60;96.90;;;;;;4970874;28;20590;-70
2021/07/07 16:36:18;;;;;;;1.80;1.70;;;26.30;96.70;;;;;;4971886;28;20530;-72
2021/07/07 16:38:45;;;;;;;1.87;1.77;;;26.10;97.00;;;;;;4973447;28;20515;-72
2021/07/07 16:41:12;;;;;;;3.60;2.13;;;26.00;97.60;;;;;;4975756;28;20494;-72
2021/07/07 16:43:40;;;;;;;3.17;1.60;;;26.10;97.20;;;;;;4976179;28;20459;-71
2021/07/07 16:46:07;;;;;;;1.90;1.80;;;26.00;96.70;;;;;;4961222;28;20467;-72
2021/07/07 16:48:34;;;;;;;2.20;2.10;;;26.00;97.30;;;;;;4975697;28;20497;-72
2021/07/07 16:51:02;;;;;;;1.57;1.57;;;26.10;97.40;;;;;;4974579;28;20620;-71
2021/07/07 16:53:29;;;;;;;1.60;1.60;;;26.30;97.60;;;;;;4975844;28;20563;-72
2021/07/07 16:55:56;;;;;;;1.87;1.80;;;26.50;96.80;;;;;;4975382;28;20960;-72